Time;durP1;ratioP1;P1;durP2;ratioP2;P2;SDS_P1;SDS_P2;PMS_P1;PMS_P2;Temp;Humidity;BMP_temperature;BMP_pressure;BME280_temperature;BME280_humidity;BME280_pressure;Samples;Min_cycle;Max_cycle;Signal;HPM_P1;HPM_P2
2022/04/29 00:01:30;;;;;;;13.10;6.57;;;5.90;99.90;;;;;;5164635;27;20049;-79
2022/04/29 00:03:58;;;;;;;13.38;6.45;;;5.60;99.90;;;;;;5147333;27;20469;-79
2022/04/29 00:06:23;;;;;;;12.30;6.00;;;5.60;99.90;;;;;;5165060;27;20042;-80
2022/04/29 00:08:49;;;;;;;14.75;6.90;;;5.60;99.90;;;;;;5165149;27;20098;-80
2022/04/29 00:11:15;;;;;;;12.23;6.43;;;6.50;99.90;;;;;;5165501;27;20051;-79
2022/04/29 00:13:41;;;;;;;13.98;6.53;;;6.40;99.90;;;;;;5147730;27;20110;-79
2022/04/29 00:16:07;;;;;;;12.90;5.65;;;5.50;99.90;;;;;;5165099;27;20040;-79
2022/04/29 00:18:32;;;;;;;12.57;6.57;;;6.20;99.90;;;;;;5164903;27;20070;-79
2022/04/29 00:20:58;;;;;;;10.95;6.00;;;5.50;99.90;;;;;;5165645;27;20079;-80
2022/04/29 00:23:24;;;;;;;12.45;6.35;;;6.40;99.90;;;;;;5182412;27;20038;-79
2022/04/29 00:25:50;;;;;;;14.05;6.57;;;6.50;99.90;;;;;;5147654;27;20457;-80
2022/04/29 00:28:15;;;;;;;14.82;5.88;;;5.50;99.90;;;;;;5164755;27;20049;-79
2022/04/29 00:30:41;;;;;;;16.40;5.95;;;5.50;99.90;;;;;;5147108;27;20042;-79
2022/04/29 00:33:07;;;;;;;12.38;5.60;;;6.30;99.90;;;;;;5164786;27;20042;-79
2022/04/29 00:35:34;;;;;;;13.10;6.07;;;5.40;99.90;;;;;;5147931;27;20046;-80
2022/04/29 00:37:59;;;;;;;13.18;6.03;;;5.80;99.90;;;;;;5147438;27;20105;-80
2022/04/29 00:40:30;;;;;;;12.77;6.40;;;6.10;99.90;;;;;;5182837;27;20500;-79
2022/04/29 00:42:56;;;;;;;12.77;5.75;;;5.40;99.90;;;;;;5163794;27;20117;-79
2022/04/29 00:45:23;;;;;;;13.05;6.05;;;5.40;99.90;;;;;;5164588;27;20054;-79
2022/04/29 00:47:51;;;;;;;12.07;5.65;;;6.10;99.90;;;;;;5164561;27;20063;-79
2022/04/29 00:50:21;;;;;;;14.65;5.65;;;5.40;99.90;;;;;;5147257;27;20042;-79
2022/04/29 00:52:50;;;;;;;13.25;5.85;;;5.40;99.90;;;;;;5164645;27;20430;-79
2022/04/29 00:55:17;;;;;;;14.05;5.88;;;6.20;99.90;;;;;;5147168;27;20094;-79
2022/04/29 00:57:53;;;;;;;11.48;5.90;;;5.70;99.90;;;;;;5165351;27;20043;-79
2022/04/29 01:00:19;;;;;;;12.45;6.20;;;5.40;99.90;;;;;;5167836;27;20573;-80
2022/04/29 01:02:55;;;;;;;14.75;6.28;;;5.40;99.90;;;;;;5151845;27;20503;-79
2022/04/29 01:05:23;;;;;;;13.02;5.50;;;5.50;99.90;;;;;;5186662;27;20053;-79
2022/04/29 01:07:50;;;;;;;11.98;6.00;;;5.30;99.90;;;;;;5168462;27;20380;-80
2022/04/29 01:10:17;;;;;;;12.38;6.38;;;5.30;99.90;;;;;;5167980;27;20388;-79
2022/04/29 01:12:44;;;;;;;12.27;6.07;;;6.30;99.90;;;;;;5150905;27;20064;-79
2022/04/29 01:15:13;;;;;;;15.18;5.80;;;5.30;99.90;;;;;;5186472;27;20046;-79
2022/04/29 01:17:40;;;;;;;11.80;5.43;;;5.30;99.90;;;;;;5150793;27;20038;-79
2022/04/29 01:20:09;;;;;;;11.57;5.13;;;5.30;99.90;;;;;;5170748;27;20038;-80
2022/04/29 01:22:35;;;;;;;13.77;6.03;;;5.30;99.90;;;;;;5170826;27;20038;-79
2022/04/29 01:25:02;;;;;;;11.30;5.30;;;5.30;99.90;;;;;;5186535;27;20411;-79
2022/04/29 01:27:28;;;;;;;11.20;5.57;;;5.20;99.90;;;;;;5168312;27;20047;-79
2022/04/29 01:30:15;;;;;;;14.95;6.18;;;5.70;99.90;;;;;;5168137;27;20105;-80
2022/04/29 01:32:41;;;;;;;11.35;5.45;;;5.20;99.90;;;;;;5168048;27;20052;-79
2022/04/29 01:35:09;;;;;;;14.98;5.93;;;6.00;99.90;;;;;;5168477;27;20081;-79
2022/04/29 01:37:35;;;;;;;12.27;6.03;;;5.20;99.90;;;;;;5167562;27;20069;-79
2022/04/29 01:40:01;;;;;;;11.80;5.70;;;5.20;99.90;;;;;;5167947;27;20042;-79
2022/04/29 01:42:27;;;;;;;14.18;6.03;;;5.70;99.90;;;;;;5150386;27;20069;-80
2022/04/29 01:44:53;;;;;;;12.88;5.63;;;5.20;99.90;;;;;;5167395;27;20034;-80
2022/04/29 01:47:19;;;;;;;10.45;6.22;;;6.10;99.90;;;;;;5152932;27;20034;-79
2022/04/29 01:49:44;;;;;;;11.77;6.15;;;5.90;99.90;;;;;;5153183;27;20102;-79
2022/04/29 01:52:10;;;;;;;12.32;5.32;;;5.20;99.90;;;;;;5167786;27;20070;-80
2022/04/29 01:54:36;;;;;;;10.13;5.60;;;5.50;99.90;;;;;;5186525;27;20034;-80
2022/04/29 01:57:06;;;;;;;13.20;5.60;;;5.50;99.90;;;;;;5167134;27;20089;-79
2022/04/29 01:59:33;;;;;;;12.23;5.63;;;5.20;99.90;;;;;;5168074;27;20034;-79
2022/04/29 02:01:59;;;;;;;11.48;5.93;;;5.20;99.90;;;;;;5168279;27;20159;-79
2022/04/29 02:04:25;;;;;;;14.23;6.28;;;5.20;99.90;;;;;;5166989;27;20046;-79
2022/04/29 02:06:51;;;;;;;14.48;5.95;;;5.30;99.90;;;;;;5150097;27;20041;-79
2022/04/29 02:09:17;;;;;;;13.57;5.85;;;5.80;99.90;;;;;;5150244;27;20038;-80
2022/04/29 02:14:28;;;;;;;13.70;5.95;;;5.30;99.90;;;;;;5166750;27;20404;-79
2022/04/29 02:16:55;;;;;;;11.23;5.43;;;5.30;99.90;;;;;;5185456;27;20030;-79
2022/04/29 02:19:22;;;;;;;9.60;5.85;;;5.30;99.90;;;;;;5149730;27;20034;-80
2022/04/29 02:21:48;;;;;;;13.18;5.10;;;5.90;99.90;;;;;;5166979;27;20422;-79
2022/04/29 02:24:14;;;;;;;11.35;5.05;;;5.30;99.90;;;;;;5167559;27;20038;-80
2022/04/29 02:26:45;;;;;;;12.15;5.35;;;5.70;99.90;;;;;;5185860;27;20038;-79
2022/04/29 02:29:10;;;;;;;13.73;5.35;;;5.30;99.90;;;;;;5167147;27;20463;-80
2022/04/29 02:31:36;;;;;;;12.32;5.78;;;5.30;99.90;;;;;;5185153;27;20076;-79
2022/04/29 02:34:03;;;;;;;11.10;5.18;;;6.20;99.90;;;;;;5149404;27;20053;-80
2022/04/29 02:36:29;;;;;;;11.02;5.88;;;5.20;99.90;;;;;;5149658;27;20042;-80
2022/04/29 02:38:55;;;;;;;18.23;6.13;;;5.30;99.90;;;;;;5166754;27;20133;-79
2022/04/29 02:41:23;;;;;;;9.75;5.88;;;5.70;99.90;;;;;;5166785;27;20035;-80
2022/04/29 02:43:49;;;;;;;11.65;5.93;;;5.20;99.90;;;;;;5166588;27;20389;-79
2022/04/29 02:46:15;;;;;;;13.77;6.03;;;5.60;99.90;;;;;;5167341;27;20042;-80
2022/04/29 02:48:41;;;;;;;12.25;6.00;;;5.70;99.90;;;;;;5185257;27;20038;-80
2022/04/29 02:51:07;;;;;;;11.70;5.78;;;5.80;99.90;;;;;;5166426;27;20030;-79
2022/04/29 02:53:32;;;;;;;10.88;5.43;;;5.60;99.90;;;;;;5185591;27;20042;-80
2022/04/29 02:55:58;;;;;;;13.75;6.25;;;5.60;99.90;;;;;;5149781;27;20042;-79
2022/04/29 02:58:24;;;;;;;13.70;5.70;;;5.10;99.90;;;;;;5149605;27;20046;-79
2022/04/29 03:00:49;;;;;;;13.15;5.95;;;5.80;99.90;;;;;;5166178;27;20560;-80
2022/04/29 03:03:15;;;;;;;13.98;5.78;;;5.10;99.90;;;;;;5165952;27;20106;-79
2022/04/29 03:05:41;;;;;;;11.63;5.88;;;5.90;99.90;;;;;;5148613;27;20030;-79
2022/04/29 03:08:07;;;;;;;13.15;6.25;;;5.70;99.90;;;;;;5166598;27;20042;-79
2022/04/29 03:10:34;;;;;;;10.95;6.07;;;5.00;99.90;;;;;;5166483;27;20039;-79
2022/04/29 03:13:00;;;;;;;13.77;6.13;;;5.00;99.90;;;;;;5185073;27;20051;-79
2022/04/29 03:15:26;;;;;;;13.77;5.72;;;5.70;99.90;;;;;;5165740;27;20054;-79
2022/04/29 03:20:39;;;;;;;11.27;6.35;;;5.80;99.90;;;;;;5152041;27;20054;-79
2022/04/29 03:23:06;;;;;;;12.82;6.22;;;4.90;99.90;;;;;;5183990;27;20035;-80
2022/04/29 03:25:32;;;;;;;12.52;6.70;;;5.70;99.90;;;;;;5184645;27;20053;-79
2022/04/29 03:27:58;;;;;;;22.17;6.43;;;5.90;99.90;;;;;;5148278;27;20476;-79
2022/04/29 03:30:24;;;;;;;12.05;6.15;;;4.80;99.90;;;;;;5166163;27;20082;-79
2022/04/29 03:32:55;;;;;;;13.48;5.97;;;4.80;99.90;;;;;;5166183;27;20404;-79
2022/04/29 03:35:22;;;;;;;12.18;6.65;;;4.80;99.90;;;;;;5148279;27;20046;-80
2022/04/29 03:37:51;;;;;;;13.40;5.93;;;4.80;99.90;;;;;;5148458;27;20053;-80
2022/04/29 03:40:35;;;;;;;12.57;6.32;;;4.80;99.90;;;;;;5149218;27;20121;-79
2022/04/29 03:43:02;;;;;;;11.40;6.13;;;4.80;99.90;;;;;;5148426;27;20042;-80
2022/04/29 03:45:28;;;;;;;14.90;6.72;;;4.90;99.90;;;;;;5148717;27;20160;-79
2022/04/29 03:47:54;;;;;;;13.65;6.43;;;4.90;99.90;;;;;;5166163;27;20088;-80
2022/04/29 03:50:23;;;;;;;11.23;6.30;;;4.90;99.90;;;;;;5148671;27;20049;-79
2022/04/29 03:52:55;;;;;;;14.27;6.35;;;4.70;99.90;;;;;;5165154;27;20038;-79
2022/04/29 03:55:24;;;;;;;11.65;6.38;;;5.40;99.90;;;;;;5166168;27;20034;-79
2022/04/29 03:57:50;;;;;;;12.35;6.18;;;5.00;99.90;;;;;;5165952;27;20362;-79
2022/04/29 04:00:17;;;;;;;15.68;6.97;;;5.50;99.90;;;;;;5165901;27;20045;-79
2022/04/29 04:02:43;;;;;;;19.10;7.05;;;4.80;99.90;;;;;;5166024;27;20445;-79
2022/04/29 04:05:09;;;;;;;16.92;7.45;;;5.70;99.90;;;;;;5164874;27;20106;-79
2022/04/29 04:07:35;;;;;;;12.07;6.13;;;4.80;99.90;;;;;;5165026;27;20137;-79
2022/04/29 04:10:02;;;;;;;14.40;6.78;;;5.90;99.90;;;;;;5183839;27;20073;-80
2022/04/29 04:12:43;;;;;;;16.42;7.18;;;5.60;99.90;;;;;;5184636;27;20095;-79
2022/04/29 04:15:11;;;;;;;13.48;6.25;;;4.80;99.90;;;;;;5165046;27;20047;-79
2022/04/29 04:17:38;;;;;;;14.90;6.82;;;4.80;99.90;;;;;;5148741;27;20063;-79
2022/04/29 04:20:05;;;;;;;13.93;6.35;;;4.90;99.90;;;;;;5183570;27;20055;-79
2022/04/29 04:22:35;;;;;;;20.33;6.90;;;4.90;99.90;;;;;;5147738;27;20049;-79
2022/04/29 04:25:02;;;;;;;15.10;6.65;;;5.90;99.90;;;;;;5148452;27;20045;-80
2022/04/29 04:27:28;;;;;;;13.38;6.55;;;5.10;99.90;;;;;;5184024;27;20122;-80
2022/04/29 04:29:54;;;;;;;15.35;6.90;;;5.10;99.90;;;;;;5165300;27;20038;-80
2022/04/29 04:32:20;;;;;;;13.32;6.32;;;5.20;99.90;;;;;;5148882;27;20062;-79
2022/04/29 04:34:52;;;;;;;12.63;6.85;;;5.30;99.90;;;;;;5169036;27;20061;-80
2022/04/29 04:37:22;;;;;;;17.55;7.22;;;6.30;99.90;;;;;;5170036;27;20053;-79
2022/04/29 04:39:49;;;;;;;13.32;6.82;;;5.30;99.90;;;;;;5152571;27;20078;-79
2022/04/29 04:42:15;;;;;;;14.52;6.55;;;5.90;99.90;;;;;;5170284;27;20046;-79
2022/04/29 04:44:41;;;;;;;13.25;6.55;;;6.30;99.90;;;;;;5188750;27;20167;-80
2022/04/29 04:47:08;;;;;;;12.48;6.70;;;5.90;99.90;;;;;;5152466;27;20038;-79
2022/04/29 04:49:35;;;;;;;15.80;6.90;;;5.30;99.90;;;;;;5153598;27;20049;-80
2022/04/29 04:52:01;;;;;;;12.10;5.88;;;5.30;99.90;;;;;;5171105;27;20034;-80
2022/04/29 04:54:27;;;;;;;9.82;6.07;;;5.20;99.90;;;;;;5155003;27;20058;-80
2022/04/29 04:56:52;;;;;;;13.50;6.28;;;5.50;99.90;;;;;;5154556;27;20042;-80
2022/04/29 04:59:18;;;;;;;13.95;6.65;;;5.20;99.90;;;;;;5171660;27;20070;-79
2022/04/29 05:01:44;;;;;;;12.18;6.63;;;5.50;99.90;;;;;;5152518;27;20042;-80
2022/04/29 05:04:10;;;;;;;11.43;6.10;;;6.20;99.90;;;;;;5170306;27;20046;-79
2022/04/29 05:06:37;;;;;;;14.95;6.18;;;5.30;99.90;;;;;;5153398;27;20034;-79
2022/04/29 05:09:04;;;;;;;12.25;5.93;;;5.30;99.90;;;;;;5170943;27;20071;-80
2022/04/29 05:11:30;;;;;;;12.30;6.28;;;5.30;99.90;;;;;;5169210;27;20046;-79
2022/04/29 05:13:56;;;;;;;10.57;5.68;;;5.40;99.90;;;;;;5152643;27;20054;-80
2022/04/29 05:16:21;;;;;;;13.98;6.32;;;5.40;99.90;;;;;;5153069;27;20049;-80
2022/04/29 05:18:50;;;;;;;10.02;5.75;;;5.50;99.90;;;;;;5170168;27;20054;-79
2022/04/29 05:21:17;;;;;;;13.50;6.45;;;5.60;99.90;;;;;;5189772;27;20031;-79
2022/04/29 05:23:43;;;;;;;12.07;5.88;;;6.10;99.90;;;;;;5172374;27;20050;-79
2022/04/29 05:26:09;;;;;;;12.88;6.57;;;5.60;99.90;;;;;;5171167;27;20050;-80
2022/04/29 05:28:35;;;;;;;12.40;5.75;;;6.50;99.90;;;;;;5153300;27;20046;-79
2022/04/29 05:31:02;;;;;;;12.85;6.43;;;5.70;99.90;;;;;;5188581;27;20038;-79
2022/04/29 05:33:29;;;;;;;11.93;6.35;;;6.20;99.90;;;;;;5152872;27;20039;-80
2022/04/29 05:35:55;;;;;;;15.55;6.60;;;6.60;99.90;;;;;;5135957;27;20046;-80
2022/04/29 05:38:21;;;;;;;11.90;6.18;;;6.20;99.90;;;;;;5169629;27;20465;-80
2022/04/29 05:43:31;;;;;;;12.43;7.20;;;6.50;99.90;;;;;;5170618;27;20065;-80
2022/04/29 05:45:56;;;;;;;11.77;6.65;;;6.00;99.90;;;;;;5168046;27;20038;-80
2022/04/29 05:48:22;;;;;;;13.18;6.10;;;6.40;99.90;;;;;;5170497;27;20030;-80
2022/04/29 05:50:48;;;;;;;13.43;6.72;;;6.50;99.90;;;;;;5153439;27;20050;-80
2022/04/29 05:53:15;;;;;;;16.95;7.07;;;7.10;99.90;;;;;;5169551;27;20045;-80
2022/04/29 05:55:43;;;;;;;13.07;6.82;;;6.40;99.90;;;;;;5169503;27;20520;-80
2022/04/29 05:58:08;;;;;;;14.35;6.75;;;6.20;99.90;;;;;;5170113;27;20045;-80
2022/04/29 06:00:34;;;;;;;14.38;6.70;;;6.30;99.90;;;;;;5155797;27;20034;-80
2022/04/29 06:03:00;;;;;;;12.48;7.13;;;6.40;99.90;;;;;;5168076;27;20050;-80
2022/04/29 06:05:26;;;;;;;14.52;6.95;;;7.20;99.90;;;;;;5168004;27;20038;-79
2022/04/29 06:07:53;;;;;;;16.17;7.55;;;6.50;99.90;;;;;;5151332;27;20420;-80
2022/04/29 06:10:19;;;;;;;13.80;7.00;;;7.00;99.90;;;;;;5168198;27;20038;-80
2022/04/29 06:12:46;;;;;;;13.27;6.32;;;6.70;99.90;;;;;;5168264;27;20061;-79
2022/04/29 06:15:17;;;;;;;10.57;6.70;;;7.70;99.90;;;;;;5169234;27;20082;-80
2022/04/29 06:17:43;;;;;;;15.57;7.10;;;6.90;99.90;;;;;;5168079;27;20053;-79
2022/04/29 06:20:10;;;;;;;14.52;7.28;;;7.70;99.90;;;;;;5151370;27;20137;-80
2022/04/29 06:22:42;;;;;;;12.60;6.97;;;7.00;99.90;;;;;;5169356;27;20071;-79
2022/04/29 06:25:08;;;;;;;10.75;6.43;;;8.00;99.90;;;;;;5151578;27;20038;-80
2022/04/29 06:27:34;;;;;;;11.35;6.38;;;7.10;99.90;;;;;;5169048;27;20049;-79
2022/04/29 06:29:59;;;;;;;11.95;6.63;;;8.10;99.90;;;;;;5152251;27;20077;-80
2022/04/29 06:32:25;;;;;;;12.75;6.40;;;8.10;99.90;;;;;;5170029;27;20030;-80
2022/04/29 06:34:51;;;;;;;10.32;6.15;;;7.60;99.90;;;;;;5187068;27;20044;-80
2022/04/29 06:37:20;;;;;;;9.85;6.38;;;7.30;99.90;;;;;;5152809;27;20050;-80
2022/04/29 06:39:46;;;;;;;11.63;5.95;;;7.40;99.90;;;;;;5152969;27;20112;-79
2022/04/29 06:42:11;;;;;;;12.13;6.32;;;7.90;99.90;;;;;;5149332;27;20049;-79
2022/04/29 06:44:38;;;;;;;11.18;5.82;;;8.20;99.90;;;;;;5147625;27;20060;-79
2022/04/29 06:47:05;;;;;;;12.15;6.60;;;8.60;99.90;;;;;;5183551;27;20114;-79
2022/04/29 06:49:31;;;;;;;10.35;5.72;;;7.60;99.90;;;;;;5168367;27;20422;-79
2022/04/29 06:51:56;;;;;;;13.15;6.25;;;8.50;99.90;;;;;;5186322;27;20044;-80
2022/04/29 06:54:22;;;;;;;11.88;6.57;;;7.80;99.90;;;;;;5166858;27;20042;-79
2022/04/29 06:56:48;;;;;;;11.60;6.43;;;7.70;99.90;;;;;;5184652;27;20042;-79
2022/04/29 06:59:13;;;;;;;11.18;5.97;;;8.10;99.90;;;;;;5167422;27;20049;-79
2022/04/29 07:01:39;;;;;;;11.27;6.07;;;7.80;99.90;;;;;;5169063;27;20030;-80
2022/04/29 07:04:05;;;;;;;10.48;6.70;;;7.80;99.90;;;;;;5170688;27;20034;-80
2022/04/29 07:06:32;;;;;;;12.93;6.38;;;8.60;99.90;;;;;;5168045;27;20034;-80
2022/04/29 07:08:58;;;;;;;13.50;6.38;;;8.10;99.90;;;;;;5152322;27;20052;-80
2022/04/29 07:11:25;;;;;;;12.63;6.13;;;8.00;99.90;;;;;;5168360;27;20034;-80
2022/04/29 07:13:52;;;;;;;10.52;6.35;;;8.10;99.90;;;;;;5167508;27;20062;-80
2022/04/29 07:16:18;;;;;;;11.95;6.68;;;8.80;99.90;;;;;;5171299;27;20070;-79
2022/04/29 07:18:44;;;;;;;10.52;6.30;;;8.20;99.90;;;;;;5150227;27;20042;-80
2022/04/29 07:21:10;;;;;;;10.00;5.50;;;8.60;99.90;;;;;;5151704;27;20042;-80
2022/04/29 07:23:36;;;;;;;9.02;5.60;;;8.70;99.90;;;;;;5151106;27;20077;-80
2022/04/29 07:26:02;;;;;;;8.75;4.72;;;8.80;99.90;;;;;;5152359;27;20042;-80
2022/04/29 07:28:27;;;;;;;7.65;4.25;;;9.20;99.90;;;;;;5151799;27;20125;-79
2022/04/29 07:30:53;;;;;;;7.63;4.28;;;9.20;99.90;;;;;;5170991;27;20038;-80
2022/04/29 07:33:19;;;;;;;8.48;3.42;;;9.40;99.90;;;;;;5171255;27;20122;-80
2022/04/29 07:43:58;;;;;;;4.43;2.30;;;10.30;99.90;;;;;;5168769;27;20050;-80
2022/04/29 07:46:24;;;;;;;4.80;2.60;;;9.70;99.90;;;;;;5149209;27;20050;-80
2022/04/29 07:48:49;;;;;;;5.22;2.30;;;10.70;99.90;;;;;;5168409;27;20054;-79
2022/04/29 07:51:15;;;;;;;3.50;2.10;;;10.20;99.90;;;;;;5153247;27;20038;-80
2022/04/29 07:53:41;;;;;;;4.68;2.00;;;11.00;99.90;;;;;;5154338;27;20042;-80
2022/04/29 07:56:06;;;;;;;5.15;2.20;;;10.60;99.90;;;;;;5156513;27;20067;-80
2022/04/29 07:58:34;;;;;;;6.85;2.70;;;10.60;99.90;;;;;;5174338;27;20091;-80
2022/04/29 08:01:00;;;;;;;14.55;4.63;;;11.40;99.90;;;;;;5170978;27;20054;-80
2022/04/29 08:03:26;;;;;;;7.05;2.50;;;10.40;99.90;;;;;;5167447;27;20038;-80
2022/04/29 08:05:52;;;;;;;7.93;2.40;;;10.50;99.90;;;;;;5167474;27;20049;-80
2022/04/29 08:08:19;;;;;;;5.82;2.35;;;10.70;99.90;;;;;;5168798;27;20085;-79
2022/04/29 08:10:45;;;;;;;4.18;2.20;;;10.40;99.90;;;;;;5152736;27;20046;-79
2022/04/29 08:13:11;;;;;;;6.35;2.30;;;10.30;99.90;;;;;;5170265;27;20050;-80
2022/04/29 08:15:37;;;;;;;5.90;2.50;;;10.40;99.90;;;;;;5186257;27;20370;-79
2022/04/29 08:18:05;;;;;;;6.63;2.50;;;10.30;99.90;;;;;;5167553;27;20042;-80
2022/04/29 08:20:31;;;;;;;6.07;2.33;;;10.40;99.90;;;;;;5169178;27;20126;-80
2022/04/29 08:22:57;;;;;;;6.03;2.55;;;10.50;99.90;;;;;;5154140;27;20042;-81
2022/04/29 08:25:23;;;;;;;5.35;2.70;;;10.50;99.90;;;;;;5156468;27;20042;-80
2022/04/29 08:27:50;;;;;;;3.97;2.35;;;10.50;99.90;;;;;;5155316;27;20046;-80
2022/04/29 08:30:16;;;;;;;4.93;2.30;;;10.50;99.90;;;;;;5153752;27;20042;-80
2022/04/29 08:32:46;;;;;;;4.68;2.60;;;11.20;99.90;;;;;;5154558;27;20093;-79
2022/04/29 08:35:13;;;;;;;4.38;2.50;;;11.10;99.90;;;;;;5151719;27;20046;-80
2022/04/29 08:37:40;;;;;;;5.90;2.50;;;11.30;99.90;;;;;;5173953;27;20031;-80
2022/04/29 08:40:07;;;;;;;4.43;2.55;;;10.70;99.90;;;;;;5159721;22;20038;-80
2022/04/29 08:42:41;;;;;;;4.57;2.47;;;10.80;99.90;;;;;;5052116;28;20076;-79
2022/04/29 08:45:09;;;;;;;4.67;2.40;;;10.80;99.90;;;;;;5051696;28;20046;-80
2022/04/29 08:47:37;;;;;;;6.60;2.53;;;10.80;99.90;;;;;;5048070;28;20087;-79
2022/04/29 08:50:11;;;;;;;5.57;2.60;;;11.20;99.90;;;;;;5050888;28;20056;-80
2022/04/29 08:52:37;;;;;;;5.32;2.85;;;10.90;99.90;;;;;;5054822;28;20072;-80
2022/04/29 09:00:33;;;;;;;5.75;2.90;;;10.90;99.90;;;;;;5085223;28;20045;-80
2022/04/29 09:03:02;;;;;;;8.98;3.15;;;10.80;99.90;;;;;;5068244;28;20131;-80
2022/04/29 09:05:27;;;;;;;5.55;2.80;;;10.80;99.90;;;;;;5064228;28;20387;-80
2022/04/29 09:08:03;;;;;;;8.10;2.97;;;10.80;99.90;;;;;;5056309;28;20040;-80
2022/04/29 09:10:34;;;;;;;5.63;3.00;;;10.70;99.90;;;;;;5056039;28;20045;-79
2022/04/29 09:13:22;;;;;;;4.95;2.80;;;10.60;99.90;;;;;;5049635;28;20044;-80
2022/04/29 09:15:50;;;;;;;9.43;3.45;;;10.60;99.90;;;;;;5072881;28;20108;-79
2022/04/29 09:18:46;;;;;;;4.85;2.70;;;10.50;99.90;;;;;;5051659;28;20048;-79
2022/04/29 09:21:17;;;;;;;5.00;2.72;;;10.50;99.90;;;;;;5056723;28;20533;-79
2022/04/29 09:23:54;;;;;;;5.03;2.90;;;10.40;99.90;;;;;;5053155;28;20052;-80
2022/04/29 09:26:27;;;;;;;5.68;2.80;;;10.50;99.90;;;;;;5059372;28;20040;-80
2022/04/29 09:28:55;;;;;;;6.25;3.17;;;10.40;99.90;;;;;;5071103;28;20480;-80
2022/04/29 09:31:21;;;;;;;6.15;2.78;;;10.40;99.90;;;;;;5067563;28;20044;-80
2022/04/29 09:33:57;;;;;;;4.82;3.13;;;10.40;99.90;;;;;;5050644;28;20036;-79
2022/04/29 09:36:25;;;;;;;6.55;2.90;;;10.40;99.90;;;;;;5068296;28;20060;-79
2022/04/29 09:41:36;;;;;;;6.45;3.17;;;10.40;99.90;;;;;;5073302;28;20055;-80
2022/04/29 09:44:02;;;;;;;8.93;3.80;;;10.40;99.90;;;;;;5075798;22;20048;-80
2022/04/29 09:46:28;;;;;;;6.28;3.00;;;10.30;99.90;;;;;;5068982;28;20574;-80
2022/04/29 09:48:55;;;;;;;8.25;3.95;;;10.40;99.90;;;;;;5066477;28;20063;-80
2022/04/29 09:51:47;;;;;;;5.50;2.90;;;11.10;99.90;;;;;;5084478;28;20060;-80
2022/04/29 09:54:26;;;;;;;5.70;3.13;;;10.40;99.90;;;;;;5069219;28;20510;-81
2022/04/29 09:57:23;;;;;;;5.05;3.33;;;10.40;99.90;;;;;;5076855;28;20411;-80
2022/04/29 09:59:53;;;;;;;6.53;3.13;;;10.30;99.90;;;;;;5083580;28;20514;-80
2022/04/29 10:02:21;;;;;;;9.00;3.60;;;10.40;99.90;;;;;;5083406;28;20044;-80
2022/04/29 10:04:48;;;;;;;4.40;3.00;;;10.80;99.90;;;;;;5082689;28;20068;-80
2022/04/29 10:07:18;;;;;;;7.07;3.03;;;10.50;99.90;;;;;;5083996;28;20044;-79
2022/04/29 10:09:47;;;;;;;6.90;3.05;;;10.70;99.90;;;;;;5066575;28;20050;-80
2022/04/29 10:12:14;;;;;;;5.50;2.70;;;11.50;99.90;;;;;;5084537;28;20045;-80
2022/04/29 10:14:42;;;;;;;5.40;2.90;;;10.90;99.90;;;;;;5070335;28;20045;-80
2022/04/29 10:22:50;;;;;;;5.53;2.95;;;11.60;99.90;;;;;;5083434;28;20052;-79
2022/04/29 10:25:17;;;;;;;6.55;3.05;;;11.40;99.90;;;;;;5083728;28;20049;-80
2022/04/29 10:27:44;;;;;;;5.32;3.00;;;11.50;99.90;;;;;;5066894;28;20040;-80
2022/04/29 10:30:10;;;;;;;8.07;2.67;;;11.50;99.90;;;;;;5067612;28;20052;-80
2022/04/29 10:33:10;;;;;;;6.50;3.20;;;11.50;99.90;;;;;;5064258;28;20045;-80
2022/04/29 10:35:53;;;;;;;6.07;2.72;;;11.60;99.90;;;;;;5084421;28;20109;-80
2022/04/29 10:38:25;;;;;;;6.20;3.08;;;11.60;99.90;;;;;;5068711;28;20049;-80
2022/04/29 10:41:19;;;;;;;5.75;2.80;;;11.70;99.90;;;;;;5069804;28;20045;-80
2022/04/29 10:43:48;;;;;;;8.95;3.47;;;11.60;99.90;;;;;;5068608;28;20052;-80
2022/04/29 10:46:13;;;;;;;6.97;3.05;;;11.40;99.90;;;;;;5078747;22;20055;-81
2022/04/29 10:48:41;;;;;;;5.30;3.10;;;12.00;99.90;;;;;;5078948;28;20056;-79
2022/04/29 10:51:17;;;;;;;5.75;3.17;;;11.30;99.90;;;;;;5095261;28;20040;-80
2022/04/29 10:53:45;;;;;;;4.97;2.78;;;11.20;99.90;;;;;;5078049;28;20048;-80
2022/04/29 10:56:32;;;;;;;4.28;2.80;;;11.30;99.90;;;;;;5106470;28;20043;-80
2022/04/29 10:59:03;;;;;;;5.53;2.90;;;11.50;99.90;;;;;;5087346;28;20048;-80
2022/04/29 11:01:33;;;;;;;5.85;2.90;;;11.80;99.90;;;;;;5102791;28;20036;-80
2022/04/29 11:04:19;;;;;;;4.65;2.97;;;11.70;99.90;;;;;;5070883;28;20050;-79
2022/04/29 11:06:46;;;;;;;;;;;12.30;99.90;;;;;;5091423;28;20051;-80
2022/04/29 11:09:30;;;;;;;6.95;3.28;;;11.90;99.90;;;;;;5088804;28;19959;-80
2022/04/29 11:11:58;;;;;;;6.70;3.30;;;12.00;99.90;;;;;;5109442;28;20040;-80
2022/04/29 11:14:24;;;;;;;4.63;3.10;;;11.80;99.90;;;;;;5068739;28;20040;-79
2022/04/29 11:16:55;;;;;;;5.70;2.95;;;11.70;99.90;;;;;;5084697;28;20055;-80
2022/04/29 11:19:23;;;;;;;5.28;3.58;;;11.50;99.90;;;;;;5092093;28;20036;-80
2022/04/29 11:24:42;;;;;;;4.57;3.40;;;11.30;99.90;;;;;;5093195;28;20062;-79
2022/04/29 11:27:08;;;;;;;5.43;3.20;;;11.30;99.90;;;;;;5113361;28;20044;-80
2022/04/29 11:29:44;;;;;;;5.20;2.90;;;11.30;99.90;;;;;;5071159;28;20372;-79
2022/04/29 11:32:09;;;;;;;;;;;11.30;99.90;;;;;;5071267;28;20102;-80
2022/04/29 11:34:35;;;;;;;6.05;3.55;;;11.30;99.90;;;;;;5087830;28;20355;-80
2022/04/29 11:37:01;;;;;;;5.28;3.30;;;11.90;99.90;;;;;;5085857;28;20047;-80
2022/04/29 11:39:26;;;;;;;4.85;3.17;;;11.30;99.90;;;;;;5089580;28;20036;-79
2022/04/29 11:42:01;;;;;;;7.28;3.30;;;11.20;99.90;;;;;;5086381;28;20510;-79
2022/04/29 11:44:38;;;;;;;6.07;3.63;;;11.50;99.90;;;;;;5070432;28;20114;-79
2022/04/29 11:47:05;;;;;;;13.02;3.67;;;11.40;99.90;;;;;;5075254;28;20056;-80
2022/04/29 11:49:32;;;;;;;6.10;3.33;;;11.30;99.90;;;;;;5059505;28;20055;-79
2022/04/29 11:52:27;;;;;;;6.45;3.30;;;11.40;99.90;;;;;;5074270;28;20043;-81
2022/04/29 11:54:55;;;;;;;6.10;3.28;;;11.30;99.90;;;;;;5075191;28;20256;-80
2022/04/29 11:57:22;;;;;;;4.95;3.10;;;11.20;99.90;;;;;;5069658;28;20399;-79
2022/04/29 11:59:48;;;;;;;6.22;3.30;;;11.30;99.90;;;;;;5035903;28;20115;-79
2022/04/29 12:02:18;;;;;;;5.82;3.55;;;11.80;99.90;;;;;;5057460;28;20040;-79
2022/04/29 12:05:03;;;;;;;4.82;2.97;;;11.30;99.90;;;;;;5074525;28;20076;-79
2022/04/29 12:07:38;;;;;;;7.68;3.38;;;11.20;99.90;;;;;;5069925;28;20484;-80
2022/04/29 12:10:19;;;;;;;5.10;3.10;;;11.50;99.90;;;;;;5085269;28;20052;-80
2022/04/29 12:12:47;;;;;;;6.20;3.10;;;11.40;99.90;;;;;;5049821;28;20052;-79
2022/04/29 12:15:16;;;;;;;5.50;3.10;;;11.40;99.90;;;;;;5049827;28;20395;-79
2022/04/29 12:17:42;;;;;;;5.65;2.90;;;11.80;99.90;;;;;;5067649;28;20063;-79
2022/04/29 12:20:15;;;;;;;6.70;3.20;;;11.50;99.90;;;;;;5067163;28;20040;-79
2022/04/29 12:22:40;;;;;;;4.93;3.17;;;11.40;99.90;;;;;;5089686;28;20072;-80
2022/04/29 12:25:33;;;;;;;5.75;3.25;;;11.30;99.90;;;;;;5073745;28;20067;-79
2022/04/29 12:28:19;;;;;;;5.53;2.92;;;11.40;99.90;;;;;;5054875;28;20074;-79
2022/04/29 12:36:47;;;;;;;6.50;3.45;;;11.50;99.90;;;;;;5084739;28;20055;-79
2022/04/29 12:39:13;;;;;;;5.20;3.13;;;11.40;99.90;;;;;;5050460;28;20036;-79
2022/04/29 12:41:39;;;;;;;5.05;3.00;;;11.60;99.90;;;;;;5050797;28;20048;-80
2022/04/29 12:44:07;;;;;;;4.80;2.85;;;11.50;99.90;;;;;;5051018;28;20044;-80
2022/04/29 12:46:33;;;;;;;4.90;2.88;;;11.70;99.90;;;;;;5052482;28;20500;-80
2022/04/29 12:48:59;;;;;;;4.35;2.63;;;11.90;99.90;;;;;;5068870;28;20061;-80
2022/04/29 12:51:33;;;;;;;4.20;2.75;;;12.10;99.90;;;;;;5069011;28;20067;-80
2022/04/29 12:54:01;;;;;;;9.48;3.20;;;12.20;99.90;;;;;;5067650;28;20049;-80
2022/04/29 12:56:29;;;;;;;5.57;2.50;;;12.50;99.90;;;;;;5054951;28;20055;-80
2022/04/29 12:58:55;;;;;;;4.55;2.70;;;12.70;99.90;;;;;;5056085;28;20040;-80
2022/04/29 13:01:21;;;;;;;7.10;2.90;;;12.80;99.90;;;;;;5056495;28;20048;-80
2022/04/29 13:03:52;;;;;;;4.88;2.65;;;12.70;99.90;;;;;;5074580;28;20037;-80
2022/04/29 13:06:20;;;;;;;6.57;3.03;;;12.80;99.90;;;;;;5074056;28;20048;-80
2022/04/29 13:08:46;;;;;;;4.85;2.83;;;13.40;99.90;;;;;;5056556;28;20518;-80
2022/04/29 13:11:20;;;;;;;5.57;2.90;;;13.50;99.90;;;;;;5056223;28;20044;-80
2022/04/29 13:13:47;;;;;;;4.67;2.70;;;13.20;99.90;;;;;;5056964;28;20040;-80
2022/04/29 13:16:13;;;;;;;4.85;2.88;;;12.70;99.90;;;;;;5072277;28;20052;-80
2022/04/29 13:18:38;;;;;;;5.40;3.00;;;12.60;99.90;;;;;;5071262;28;20044;-80
2022/04/29 13:21:08;;;;;;;6.47;2.67;;;13.20;99.90;;;;;;5071749;28;20055;-80
2022/04/29 13:23:38;;;;;;;4.82;2.75;;;12.60;99.90;;;;;;5070650;28;20048;-80
2022/04/29 13:26:04;;;;;;;4.78;2.80;;;12.70;99.90;;;;;;5071901;28;20074;-79
2022/04/29 13:28:31;;;;;;;4.20;2.55;;;12.70;99.90;;;;;;5057123;28;20036;-79
2022/04/29 13:30:58;;;;;;;7.57;2.80;;;12.80;99.90;;;;;;5075178;28;20068;-79
2022/04/29 13:33:24;;;;;;;5.18;2.80;;;12.80;99.90;;;;;;5074986;28;20042;-79